Tiempo atmosférico en la estación meteorológica de Baztan, Irurita, Navarra (183 m.)

Fecha
DESCASC
Temp. máxima en grados centígrados (hora)
DESCASC
Temp. mínima en grados centígrados (hora)
DESCASC
Temp. media en grados centígrados
DESCASC
Racha de viento máxima en m/sg (hora)
DESCASC
Velocidad máxima media en intervalos de 10 minutos(hora)
DESCASC
Precipitaciones diarias en mm
DESCASC
Precipitaciones de 00:00 a 06:00 en mm
DESCASC
Precipitaciones de 06:00 a 12:00 en mm
DESCASC
Precipitaciones de 12:00 a 18:00 en mm
DESCASC
Precipitaciones de 18:00 a 24:00 en mm
DESCASC
23-11-2017 21.7 (14:20) 8 (05:50) 14.9 9.72 (13:50) 4.44 (13:50) 0 0 0 0 0
22-11-2017 20.1 (14:30) -1.6 (06:50) 9.3 9.44 (23:50) 3.89 (23:50) 0 0 0 0 0
21-11-2017 18.9 (15:20) -0.7 (08:20) 9.1 2.78 (23:20) 1.67 (16:30) 0 0 0 0 0
20-11-2017 15.9 (15:40) 0.9 (23:50) 8.4 1.94 (16:30) 1.39 (16:30) 0 0 0 0 0
19-11-2017 11.9 (16:00) 0.8 (00:00) 6.3 2.5 (08:40) 1.39 (08:40) 0 0 0 0 0
18-11-2017 14.9 (14:30) 2 (00:00) 8.4 5 (15:30) 2.22 (15:30) 0 0 0 0 0
17-11-2017 16 (15:20) 0.4 (00:00) 8.2 3.33 (16:40) 1.39 (16:10) 0 0 0 0 0
16-11-2017 16.7 (15:30) -0.4 (00:00) 8.2 2.22 (17:10) 1.39 (17:10) 0 0 0 0 0
15-11-2017 13.1 (16:00) -0.5 (-00:0) 6.3 1.67 (16:30) 1.11 (16:30) 0 0 0 0 0
14-11-2017 10.8 (13:10) -0.4 (00:00) 5.2 6.67 (15:30) 3.06 (13:50) 0 0 0 0 0
13-11-2017 11.3 (00:00) 1.2 (00:00) 6.3 13.33 (14:10) 4.17 (14:20) 2.2 2.2 0 0 0
12-11-2017 14.2 (14:20) 10.9 (00:00) 12.5 8.89 (22:20) 3.89 (22:20) 10.6 1.3 1.4 0.4 7.5
11-11-2017 13.7 (13:20) 10.6 (00:00) 12.2 5 (15:20) 1.67 (15:30) 11.3 4.7 4.6 1.5 0.5
10-11-2017 14.5 (15:20) 4.5 (00:00) 9.5 5.83 (19:50) 1.94 (19:50) 9.9 0.1 2 1 6.8
09-11-2017 -- (--) -- (--) -- -- (--) -- (--) -- -- -- 1.5 0.1
08-11-2017 -- (--) -- (--) -- -- (--) -- (--) -- 5.3 -- -- --
07-11-2017 13.1 (15:50) -0.2 (00:00) 6.5 3.61 (16:30) 1.39 (14:40) 1.2 0.1 0 0 1.1
06-11-2017 11 (13:50) 1.6 (00:00) 6.3 6.39 (12:50) 3.06 (13:30) 3 2.1 0.9 0 0
05-11-2017 13.5 (13:30) 8.4 (00:00) 10.9 10.28 (21:50) 3.33 (15:00) 33.3 14.2 6.7 8.7 3.7
04-11-2017 15.9 (15:20) 6.5 (00:00) 11.2 3.61 (16:30) 1.67 (16:30) 33.3 0 0.1 8 25.2
03-11-2017 22.6 (15:10) 8.7 (00:00) 15.7 10.83 (11:10) 4.44 (11:50) 0 0 0 0 0
02-11-2017 21.1 (12:40) 7.1 (07:30) 14.1 9.44 (12:00) 4.17 (12:10) 0 0 0 0 0
01-11-2017 20.9 (14:50) 4.6 (00:00) 12.7 11.94 (13:40) 5.83 (14:00) 0 0 0 0 0
31-10-2017 17.6 (15:40) 3.5 (00:00) 10.6 3.61 (22:30) 0.83 (09:40) 0.1 0 0 0.1 0
30-10-2017 15.1 (13:10) 5 (00:00) 10.1 5 (12:50) 2.5 (16:30) 2.2 1.2 1 0 0
29-10-2017 15.4 (15:00) 4.6 (00:00) 10 4.44 (15:40) 1.94 (15:50) 1.1 0 0 0 1.1
28-10-2017 16.9 (16:40) 5.9 (00:00) 11.4 5.28 (13:10) 2.5 (18:00) 0.7 0.7 0 0 0
27-10-2017 17.3 (17:20) 6.8 (00:00) 12 6.11 (17:10) 3.06 (17:10) 0.4 0 0 0.1 0.3
26-10-2017 27.1 (15:00) 6.2 (00:00) 16.7 4.17 (16:50) 1.94 (15:40) 0 0 0 0 0
25-10-2017 27.2 (15:50) 7.5 (00:00) 17.4 3.06 (18:00) 1.67 (18:00) 0.1 0 0.1 0 0

Gráficas

Temp. máximas Temp. mínimas Temp. medias Precipitaciones Rachas de viento máximas Velocidades máximas media en intervalos de 10 minutos

Datos horarios

Fecha y hora oficial Temperatura (ºC) Velocidad del viento (km/h) Dirección del viento Racha (km/h) Dirección de racha Precipitación (mm) Presión (hPa) Tendencia (hPa) Humedad (%)
2017-11-23 23:00:00 8.8 0 Calma 7 Nordeste 0 -- -- 86
2017-11-23 22:00:00 8.5 0 Calma 8 Noroeste 0 -- -- 84
2017-11-23 21:00:00 9.7 0 Calma 8 Oeste 0 -- -- 78
2017-11-23 20:00:00 12.3 0 Calma 13 Sudeste 0 -- -- 63
2017-11-23 19:00:00 14.9 4 Nordeste 14 Sur 0 -- -- 52
2017-11-23 18:00:00 17.2 0 Calma 34 Sur 0 -- -- 45
2017-11-23 17:00:00 18 0 Calma 32 Sudoeste 0 -- -- 44
2017-11-23 16:00:00 18 2 Noroeste 10 Nordeste 0 -- -- 47
2017-11-23 15:00:00 19.8 2 Nordeste 16 Sudoeste 0 -- -- 39
2017-11-23 14:00:00 21.1 8 Sudoeste 35 Sudoeste 0 -- -- 36
2017-11-23 13:00:00 19.7 7 Noroeste 33 Oeste 0 -- -- 38
2017-11-23 12:00:00 19 5 Oeste 19 Noroeste 0 -- -- 39
2017-11-23 11:00:00 17.1 3 Norte 14 Oeste 0 -- -- 42
2017-11-23 10:00:00 13.3 0 Calma 19 Noroeste 0 -- -- 54
2017-11-23 09:00:00 14.4 8 Noroeste 29 Sudoeste 0 -- -- 45
2017-11-23 08:00:00 15.6 11 Sudoeste 30 Sudoeste 0 -- -- 42
2017-11-23 07:00:00 11.9 3 Sudoeste 22 Sudoeste 0 -- -- 49
2017-11-23 06:00:00 9.8 0 Calma 13 Sudoeste 0 -- -- 56
2017-11-23 05:00:00 10.9 6 Sudoeste 17 Oeste 0 -- -- 52
2017-11-23 04:00:00 9.1 8 Noroeste 13 Noroeste 0 -- -- 62
2017-11-23 03:00:00 10.3 5 Noroeste 15 Oeste 0 -- -- 56
2017-11-23 02:00:00 11.8 0 Calma 21 Noroeste 0 -- -- 50
2017-11-23 01:00:00 12.6 6 Noroeste 29 Este 0 -- -- 46
2017-11-23 00:00:00 15.2 6 Sur 34 Sur 0 -- -- 37
2017-11-22 23:00:00 12 6 Sudoeste 26 Sur 0 -- -- 50
2017-11-22 22:00:00 11 0 Calma 21 Sudeste 0 -- -- 57
2017-11-22 21:00:00 9.6 2 Nordeste 13 Oeste 0 -- -- 64
2017-11-22 20:00:00 11.7 4 Oeste 14 Sudoeste 0 -- -- 52
2017-11-22 19:00:00 10.5 0 Calma 12 Noroeste 0 -- -- 51
2017-11-22 18:00:00 14.8 2 Noroeste 23 Sur 0 -- -- 35
2017-11-22 17:00:00 17.1 3 Sur 32 Sur 0 -- -- 32
2017-11-22 16:00:00 19.7 7 Sur 27 Sudeste 0 -- -- 29
2017-11-22 15:00:00 19.4 8 Noroeste 30 Sur 0 -- -- 29
2017-11-22 14:00:00 18.9 7 Noroeste 21 Nordeste 0 -- -- 31
2017-11-22 13:00:00 17.9 10 Noroeste 20 Noroeste 0 -- -- 34
2017-11-22 12:00:00 15.7 6 Noroeste 13 Noroeste 0 -- -- 40
2017-11-22 11:00:00 10 0 Calma 11 Noroeste 0 -- -- 76
2017-11-22 10:00:00 3.3 0 Calma 14 Sudeste 0 -- -- 95
2017-11-22 09:00:00 -0.7 0 Calma 16 Sur 0 -- -- 97
2017-11-22 08:00:00 -1 0 Calma 13 Sur 0 -- -- 97
2017-11-22 07:00:00 -1.4 0 Calma 9 Sur 0 -- -- 96
2017-11-22 06:00:00 -1 0 Calma 5 Sur 0 -- -- 97
2017-11-22 05:00:00 -1.1 0 Calma 5 Sur 0 -- -- 97
2017-11-22 04:00:00 -0.8 0 Calma 8 Sudeste 0 -- -- 97
2017-11-22 03:00:00 -0.5 0 Calma 5 Sudoeste 0 -- -- 97
2017-11-22 02:00:00 -0.1 0 Calma 6 Sudeste 0 -- -- 97
2017-11-22 01:00:00 0 0 Calma 6 Sudeste 0 -- -- 96
2017-11-22 00:00:00 0.6 0 Calma 10 Sudeste 0 -- -- 96
2017-11-21 23:00:00 1 0 Calma 6 Sudeste 0 -- -- 96
2017-11-21 22:00:00 1.3 0 Calma 7 Sur 0 -- -- 95
2017-11-21 21:00:00 2.5 0 Calma 4 Sudeste 0 -- -- 94
2017-11-21 20:00:00 3.6 0 Calma 4 Nordeste 0 -- -- 91
2017-11-21 19:00:00 5.3 0 Calma 4 Sudoeste 0 -- -- 87
2017-11-21 18:00:00 7.7 0 Calma 6 Sudoeste 0 -- -- 78
2017-11-21 17:00:00 12.2 3 Sudoeste 9 Sudoeste 0 -- -- 61
2017-11-21 16:00:00 17.1 6 Sur 9 Sudoeste 0 -- -- 46
2017-11-21 15:00:00 18.6 0 Calma 3 Sudeste 0 -- -- 43
2017-11-21 14:00:00 16.4 0 Calma 5 Sudeste 0 -- -- 51
2017-11-21 13:00:00 12.7 0 Calma 4 Sudeste 0 -- -- 60
2017-11-21 12:00:00 8.8 0 Calma 3 Sudeste 0 -- -- 76
2017-11-21 11:00:00 5.8 0 Calma 0 Calma 0 -- -- 89
2017-11-21 10:00:00 2.3 0 Calma 0 Calma 0 -- -- 97
2017-11-21 09:00:00 -0.2 0 Calma -- -- 0 -- -- 97
2017-11-21 08:00:00 -0.6 0 Calma -- -- 0 -- -- 97
2017-11-21 07:00:00 -0.5 0 Calma -- -- 0 -- -- 97
2017-11-21 06:00:00 0 0 Calma -- -- 0 -- -- 97
2017-11-21 05:00:00 0 0 Calma -- -- 0 -- -- 97
2017-11-21 04:00:00 0 0 Calma -- -- 0 -- -- 96
2017-11-21 03:00:00 0 0 Calma -- -- 0 -- -- 96
2017-11-21 02:00:00 0.2 0 Calma -- -- 0 -- -- 96
2017-11-21 01:00:00 0.5 0 Calma -- -- 0 -- -- 95
2017-11-21 00:00:00 1 0 Calma -- -- 0 -- -- 95
2017-11-20 23:00:00 1.5 0 Calma -- -- 0 -- -- 95
2017-11-20 22:00:00 2 0 Calma -- -- 0 -- -- 94
2017-11-20 21:00:00 3 0 Calma -- -- 0 -- -- 93
2017-11-20 20:00:00 4 0 Calma -- -- 0 -- -- 91
2017-11-20 19:00:00 5.7 0 Calma -- -- 0 -- -- 86
2017-11-20 18:00:00 8 0 Calma 3 Sudoeste 0 -- -- 80
2017-11-20 17:00:00 11.1 3 Sur 7 Sudoeste 0 -- -- 68
2017-11-20 16:00:00 15 0 Calma 4 Sudoeste 0 -- -- 55
2017-11-20 15:00:00 14.4 0 Calma 4 Sur 0 -- -- 58
2017-11-20 14:00:00 12.1 0 Calma 4 Sudeste 0 -- -- 66
2017-11-20 13:00:00 7.6 0 Calma 4 Sudeste 0 -- -- 87
2017-11-20 12:00:00 4.2 0 Calma 5 Este 0 -- -- 97
2017-11-20 11:00:00 2.6 0 Calma 4 Sudoeste 0 -- -- 97
2017-11-20 10:00:00 -- 0 Calma 5 Sudoeste 0 -- -- --
2017-11-20 09:00:00 1.8 0 Calma 5 Sudoeste 0 -- -- 97
2017-11-20 08:00:00 1.6 0 Calma 5 Sudoeste 0 -- -- 97
2017-11-20 07:00:00 1.8 0 Calma 5 Sudoeste 0 -- -- 97
2017-11-20 06:00:00 1.5 3 Sudoeste 5 Sudoeste 0 -- -- 97
2017-11-20 05:00:00 1.6 0 Calma 4 Sudoeste 0 -- -- 97
2017-11-20 04:00:00 1.7 0 Calma 4 Sudoeste 0 -- -- 97
2017-11-20 03:00:00 1.8 0 Calma 4 Sudoeste 0 -- -- 97
2017-11-20 02:00:00 1.6 0 Calma 3 Sudoeste 0 -- -- 97
2017-11-20 01:00:00 1.9 0 Calma 0 Calma 0 -- -- 97
2017-11-20 00:00:00 1.8 0 Calma 4 Sur 0 -- -- 97
2017-11-19 23:00:00 1.1 0 Calma 4 Sudoeste 0 -- -- 96
2017-11-19 22:00:00 1.2 0 Calma 4 Sudoeste 0 -- -- 95
2017-11-19 21:00:00 1.9 0 Calma 4 Sur 0 -- -- 95
2017-11-19 20:00:00 2.6 0 Calma 3 Sur 0 -- -- 92
2017-11-19 19:00:00 4 0 Calma 4 Sudeste 0 -- -- 89
2017-11-19 18:00:00 5.8 0 Calma 8 Sudoeste 0 -- -- 84
2017-11-19 17:00:00 8.4 2 Sudoeste 7 Sudoeste 0 -- -- 77
2017-11-19 16:00:00 11.6 0 Calma 4 Sudoeste 0 -- -- 70
2017-11-19 15:00:00 9.9 0 Calma 5 Sudeste 0 -- -- 75
2017-11-19 14:00:00 6.5 0 Calma 5 Sudeste 0 -- -- 89
2017-11-19 13:00:00 5 3 Sudeste 5 Sudeste 0 -- -- 96
2017-11-19 12:00:00 4 0 Calma 6 Sudeste 0 -- -- 97
2017-11-19 11:00:00 3.5 3 Norte 7 Norte 0 -- -- 97
2017-11-19 10:00:00 3.4 0 Calma 5 Este 0 -- -- 97
2017-11-19 09:00:00 2.9 4 Sur 9 Sur 0 -- -- 97
2017-11-19 08:00:00 3.3 3 Sur 6 Sudoeste 0 -- -- 97
2017-11-19 07:00:00 3.6 3 Sur 6 Sudeste 0 -- -- 97
2017-11-19 06:00:00 3.7 2 Nordeste 6 Nordeste 0 -- -- 97
2017-11-19 05:00:00 3.8 2 Nordeste 6 Nordeste 0 -- -- 97
2017-11-19 04:00:00 3.8 2 Norte 6 Este 0 -- -- 97
2017-11-19 03:00:00 3.7 0 Calma 3 Este 0 -- -- 97
2017-11-19 02:00:00 3.5 0 Calma 3 Este 0 -- -- 97
2017-11-19 01:00:00 3.3 0 Calma 4 Nordeste 0 -- -- 97
2017-11-19 00:00:00 2.3 0 Calma 2 Noroeste 0 -- -- 96
2017-11-18 23:00:00 2.2 0 Calma 4 Sur 0 -- -- 95
2017-11-18 22:00:00 2.7 0 Calma 2 Noroeste 0 -- -- 96
2017-11-18 21:00:00 3.2 0 Calma 3 Norte 0 -- -- 95
2017-11-18 20:00:00 3.9 0 Calma 3 Sur 0 -- -- 92
2017-11-18 19:00:00 5.2 0 Calma 5 Sur 0 -- -- 90
2017-11-18 18:00:00 7.3 0 Calma 6 Sur 0 -- -- 85
2017-11-18 17:00:00 10.5 0 Calma 17 Norte 0 -- -- 70
2017-11-18 16:00:00 11.9 0 Calma 18 Norte 0 -- -- 68
2017-11-18 15:00:00 13.6 0 Calma 7 Sudeste 0 -- -- 64
2017-11-18 14:00:00 13.5 3 Sur 6 Sudeste 0 -- -- 70
2017-11-18 13:00:00 10.1 0 Calma 0 Calma 0 -- -- 85
2017-11-18 12:00:00 8.7 0 Calma 3 Sudeste 0 -- -- 90
2017-11-18 11:00:00 6.8 0 Calma 2 Sudeste 0 -- -- 95
2017-11-18 10:00:00 5.9 0 Calma 0 Calma 0 -- -- 97
2017-11-18 09:00:00 5.6 0 Calma 3 Sudeste 0 -- -- 97
2017-11-18 08:00:00 5.2 0 Calma 3 Sudeste 0 -- -- 97
2017-11-18 07:00:00 5.1 0 Calma 2 Sur 0 -- -- 97
2017-11-18 06:00:00 5 0 Calma 3 Sur 0 -- -- 97
2017-11-18 05:00:00 5.1 0 Calma 0 Calma 0 -- -- 97
2017-11-18 04:00:00 4.9 0 Calma -- -- 0 -- -- 97
2017-11-18 03:00:00 4.6 0 Calma -- -- 0 -- -- 97
2017-11-18 02:00:00 4.3 0 Calma 3 Sudoeste 0 -- -- 97
2017-11-18 01:00:00 4.1 0 Calma 3 Norte 0 -- -- 97
2017-11-18 00:00:00 3.2 0 Calma 0 Calma 0 -- -- 96
2017-11-17 23:00:00 3.4 0 Calma 0 Calma 0 -- -- 95
2017-11-17 22:00:00 4.1 0 Calma -- -- 0 -- -- 94
2017-11-17 21:00:00 5.2 0 Calma -- -- 0 -- -- 95
2017-11-17 20:00:00 5.2 0 Calma 0 Calma 0 -- -- 92
2017-11-17 19:00:00 7.1 0 Calma 6 Sudoeste 0 -- -- 88
2017-11-17 18:00:00 9.2 0 Calma 8 Sudeste 0 -- -- 80
2017-11-17 17:00:00 12.9 0 Calma 12 Nordeste 0 -- -- 63
2017-11-17 16:00:00 15.1 4 Norte 8 Norte 0 -- -- 51
2017-11-17 15:00:00 15.7 0 Calma 6 Sudeste 0 -- -- 51
2017-11-17 14:00:00 14.6 2 Sudeste 5 Sudeste 0 -- -- 53
2017-11-17 13:00:00 11.8 3 Sudeste 6 Sudeste 0 -- -- 56
2017-11-17 12:00:00 8.2 0 Calma 4 Nordeste 0 -- -- 75
2017-11-17 11:00:00 5.4 0 Calma 5 Sur 0 -- -- 89
2017-11-17 10:00:00 2.2 0 Calma 0 Calma 0 -- -- 97
2017-11-17 09:00:00 1.4 0 Calma 0 Calma 0 -- -- 97
2017-11-17 08:00:00 0.7 0 Calma 3 Este 0 -- -- 97
2017-11-17 07:00:00 0.8 0 Calma 4 Noroeste 0 -- -- 97
2017-11-17 06:00:00 0.9 0 Calma 0 Calma 0 -- -- 97
2017-11-17 05:00:00 1 0 Calma 3 Sur 0 -- -- 97
2017-11-17 04:00:00 1 0 Calma 0 Calma 0 -- -- 97
2017-11-17 03:00:00 0.7 0 Calma 0 Calma 0 -- -- 97
2017-11-17 02:00:00 0.7 0 Calma 3 Noroeste 0 -- -- 96
2017-11-17 01:00:00 0.7 0 Calma 2 Sudeste 0 -- -- 96
2017-11-17 00:00:00 1.3 0 Calma -- -- 0 -- -- 95
2017-11-16 23:00:00 1.8 0 Calma 0 Calma 0 -- -- 95
2017-11-16 22:00:00 2.5 0 Calma -- -- 0 -- -- 93
2017-11-16 21:00:00 3.6 0 Calma -- -- 0 -- -- 92
2017-11-16 20:00:00 4.4 0 Calma 3 Sudoeste 0 -- -- 90
2017-11-16 19:00:00 5.8 0 Calma 3 Sudoeste 0 -- -- 86
2017-11-16 18:00:00 8.4 0 Calma 8 Sudoeste 0 -- -- 77
2017-11-16 17:00:00 11.6 5 Sudoeste 7 Sudoeste 0 -- -- 66
2017-11-16 16:00:00 15.9 0 Calma 4 Sudoeste 0 -- -- 52
2017-11-16 15:00:00 15.4 0 Calma 4 Nordeste 0 -- -- 46
2017-11-16 14:00:00 13.6 0 Calma 5 Sudeste 0 -- -- 49
2017-11-16 13:00:00 10.5 0 Calma 5 Sur 0 -- -- 60
2017-11-16 12:00:00 6.2 0 Calma 5 Sudeste 0 -- -- 84
2017-11-16 11:00:00 3 0 Calma 4 Sudeste 0 -- -- 97
2017-11-16 10:00:00 0.5 0 Calma 4 Sudoeste 0 -- -- 97
2017-11-16 09:00:00 0.2 0 Calma 4 Sur 0 -- -- 97
2017-11-16 08:00:00 -0.3 0 Calma 4 Sudoeste 0 -- -- 97
2017-11-16 07:00:00 0 2 Sur 4 Sudoeste 0 -- -- 97
2017-11-16 06:00:00 0.1 0 Calma 4 Sur 0 -- -- 97
2017-11-16 05:00:00 0.3 2 Sudoeste 4 Sur 0 -- -- 97
2017-11-16 04:00:00 0.4 0 Calma 3 Sudeste 0 -- -- 97
2017-11-16 03:00:00 0.4 0 Calma 0 Calma 0 -- -- 97
2017-11-16 02:00:00 0.2 0 Calma -- -- 0 -- -- 97
2017-11-16 01:00:00 0.1 0 Calma -- -- 0 -- -- 96
2017-11-16 00:00:00 0.1 0 Calma 0 Calma 0 -- -- 96
2017-11-15 23:00:00 0.5 0 Calma -- -- 0 -- -- 95
2017-11-15 22:00:00 0.8 0 Calma -- -- 0 -- -- 94
2017-11-15 21:00:00 1.5 0 Calma 0 Calma 0 -- -- 93
2017-11-15 20:00:00 2.3 0 Calma 0 Calma 0 -- -- 91
2017-11-15 19:00:00 3.5 0 Calma 2 Sudoeste 0 -- -- 88
2017-11-15 18:00:00 6 0 Calma 6 Sudoeste 0 -- -- 79
2017-11-15 17:00:00 8.5 3 Sudoeste 6 Sudoeste 0 -- -- 67
2017-11-15 16:00:00 12.7 0 Calma 5 Sur 0 -- -- 53
2017-11-15 15:00:00 11.8 2 Noroeste 6 Noroeste 0 -- -- 54
2017-11-15 14:00:00 9.9 0 Calma 5 Sudeste 0 -- -- 61
2017-11-15 13:00:00 7.5 2 Nordeste 5 Nordeste 0 -- -- 73
2017-11-15 12:00:00 3.7 0 Calma 4 Sudeste 0 -- -- 95
2017-11-15 11:00:00 1.6 0 Calma 4 Sudeste 0 -- -- 98
2017-11-15 10:00:00 0.5 0 Calma 4 Sur 0 -- -- 98
2017-11-15 09:00:00 0 0 Calma 3 Sudoeste 0 -- -- 98
2017-11-15 08:00:00 -0.1 0 Calma 4 Noroeste 0 -- -- 97
2017-11-15 07:00:00 0 0 Calma 3 Sudeste 0 -- -- 97
2017-11-15 06:00:00 0 0 Calma 5 Sur 0 -- -- 97
2017-11-15 05:00:00 0.1 0 Calma 3 Sudeste 0 -- -- 97
2017-11-15 04:00:00 -0.3 0 Calma 2 Sudoeste 0 -- -- 97
2017-11-15 03:00:00 -0.4 0 Calma 3 Sudoeste 0 -- -- 97
2017-11-15 02:00:00 -0.1 0 Calma 6 Nordeste 0 -- -- 97
2017-11-15 01:00:00 0.3 0 Calma 5 Sudoeste 0 -- -- 97
2017-11-15 00:00:00 0.6 0 Calma 4 Noroeste 0 -- -- 96
2017-11-14 23:00:00 0.8 0 Calma 4 Noroeste 0 -- -- 95
2017-11-14 22:00:00 1.1 0 Calma 3 Sudeste 0 -- -- 95
2017-11-14 21:00:00 1.6 0 Calma 3 Noroeste 0 -- -- 93
2017-11-14 20:00:00 3 0 Calma 3 Sudoeste 0 -- -- 90
2017-11-14 19:00:00 3.7 3 Sur 6 Sur 0 -- -- 87
2017-11-14 18:00:00 6.3 0 Calma 14 Nordeste 0 -- -- 71
2017-11-14 17:00:00 8.7 7 Nordeste 19 Norte 0 -- -- 57
2017-11-14 16:00:00 10 6 Nordeste 24 Nordeste 0 -- -- 51
2017-11-14 15:00:00 10.7 9 Nordeste 22 Nordeste 0 -- -- 48
2017-11-14 14:00:00 10.4 10 Nordeste 22 Nordeste 0 -- -- 46
2017-11-14 13:00:00 10.2 8 Nordeste 20 Nordeste 0 -- -- 49
2017-11-14 12:00:00 9.4 5 Este 13 Este 0 -- -- 56
2017-11-14 11:00:00 6.1 0 Calma 4 Noroeste 0 -- -- 86
2017-11-14 10:00:00 2.6 0 Calma 3 Sur 0 -- -- 98
2017-11-14 09:00:00 0.1 0 Calma 4 Norte 0 -- -- 98
2017-11-14 08:00:00 -0.2 0 Calma 4 Nordeste 0 -- -- 97
2017-11-14 07:00:00 -0.1 0 Calma 3 Noroeste 0 -- -- 97
2017-11-14 06:00:00 0 0 Calma 3 Sudoeste 0 -- -- 96
2017-11-14 05:00:00 0.3 0 Calma 3 Nordeste 0 -- -- 96
2017-11-14 04:00:00 1 0 Calma 6 Sur 0 -- -- 96
2017-11-14 03:00:00 1.5 0 Calma 6 Sudoeste 0 -- -- 95
2017-11-14 02:00:00 1.7 4 Sur 7 Sudoeste 0 -- -- 94
2017-11-14 01:00:00 2.6 2 Sur 6 Sudoeste 0 -- -- 93
2017-11-14 00:00:00 2.6 3 Sudoeste 7 Sudoeste 0 -- -- 95
2017-11-13 23:00:00 1.3 0 Calma 4 Sudoeste 0 -- -- 95
2017-11-13 22:00:00 1.9 0 Calma 4 Sur 0 -- -- 93
2017-11-13 21:00:00 2.3 0 Calma 3 Sur 0 -- -- 92
2017-11-13 20:00:00 3.4 0 Calma 3 Noroeste 0 -- -- 87
2017-11-13 19:00:00 5.2 0 Calma 5 Nordeste 0 -- -- 80
2017-11-13 18:00:00 7.7 3 Nordeste 16 Nordeste 0 -- -- 60
2017-11-13 17:00:00 8.4 6 Nordeste 22 Nordeste 0 -- -- 55
2017-11-13 16:00:00 9 8 Norte 27 Nordeste 0 -- -- 53
2017-11-13 15:00:00 9 13 Norte 48 Noroeste 0 -- -- 51
2017-11-13 14:00:00 9.4 12 Norte 30 Este 0 -- -- 53
2017-11-13 13:00:00 9.6 8 Norte 22 Nordeste 0 -- -- 52
2017-11-13 12:00:00 9.5 10 Nordeste 24 Este 0 -- -- 50
2017-11-13 11:00:00 8.8 12 Nordeste 28 Nordeste 0 -- -- 50
2017-11-13 10:00:00 7.7 9 Nordeste 19 Norte 0 -- -- 60
2017-11-13 09:00:00 6.8 7 Nordeste 20 Nordeste 0 -- -- 71
2017-11-13 08:00:00 6.8 5 Nordeste 20 Norte 0 -- -- 74
2017-11-13 07:00:00 6.7 7 Norte 15 Nordeste 0 -- -- 80
2017-11-13 06:00:00 6.3 0 Calma 7 Sudeste 0.2 -- -- 91
2017-11-13 05:00:00 6.7 6 Nordeste 22 Nordeste 0.6 -- -- 82
2017-11-13 04:00:00 7.7 4 Nordeste 25 Nordeste 0.5 -- -- 82
2017-11-13 03:00:00 9.2 6 Nordeste 21 Nordeste 0.9 -- -- 79
2017-11-13 02:00:00 10.7 7 Norte 19 Nordeste 0 -- -- 72
2017-11-13 01:00:00 10.5 3 Noroeste 13 Norte 0 -- -- 75
2017-11-13 00:00:00 11.3 5 Nordeste 27 Noroeste 0 -- -- 73
2017-11-12 23:00:00 11.9 8 Norte 32 Norte 0.8 -- -- 77
2017-11-12 22:00:00 12.9 10 Norte 26 Norte 3.5 -- -- 90
2017-11-12 21:00:00 12.8 0 Calma 17 Noroeste 1.5 -- -- 91
2017-11-12 20:00:00 13.2 4 Noroeste 23 Norte 1.2 -- -- 88
2017-11-12 19:00:00 13 5 Oeste 17 Sur 0.5 -- -- 89
2017-11-12 18:00:00 12.6 0 Calma 7 Sudoeste 0.3 -- -- 93
2017-11-12 17:00:00 13 2 Sudoeste 11 Noroeste 0 -- -- 88
2017-11-12 16:00:00 13.4 0 Calma 9 Sudoeste 0 -- -- 87
2017-11-12 15:00:00 13.7 0 Calma 10 Sudoeste 0 -- -- 82
2017-11-12 14:00:00 13.5 4 Sudoeste 14 Sudoeste 0 -- -- 85
2017-11-12 13:00:00 12.9 2 Sudoeste 6 Sudoeste 0.1 -- -- 95
2017-11-12 12:00:00 12.3 0 Calma 4 Noroeste 0.1 -- -- 96
2017-11-12 11:00:00 11.8 0 Calma 4 Noroeste 0.4 -- -- 96
2017-11-12 10:00:00 11.5 0 Calma 4 Noroeste 0.2 -- -- 96
2017-11-12 09:00:00 11.3 0 Calma 3 Noroeste 0.2 -- -- 96
2017-11-12 08:00:00 10.9 0 Calma 3 Noroeste 0.2 -- -- 96
2017-11-12 07:00:00 11 0 Calma 0 Calma 0.3 -- -- 96
2017-11-12 06:00:00 11.1 0 Calma 4 Norte 0.2 -- -- 96
2017-11-12 05:00:00 11.1 0 Calma 4 Sur 0.3 -- -- 96
2017-11-12 04:00:00 11.1 0 Calma 4 Noroeste 0.2 -- -- 96
2017-11-12 03:00:00 11 0 Calma 3 Sur 0.1 -- -- 96
2017-11-12 02:00:00 11.1 0 Calma 3 Norte 0.1 -- -- 96
2017-11-12 01:00:00 11.2 0 Calma 3 Sur 0.4 -- -- 96
2017-11-12 00:00:00 11.2 0 Calma 4 Sudoeste 0 -- -- 96
2017-11-11 23:00:00 11.3 0 Calma 3 Norte 0 -- -- 96
2017-11-11 22:00:00 11.3 0 Calma 4 Sur 0 -- -- 96
2017-11-11 21:00:00 11.5 0 Calma 4 Sudoeste 0.1 -- -- 96
2017-11-11 20:00:00 11.5 0 Calma 2 Noroeste 0.2 -- -- 96
2017-11-11 19:00:00 11.6 0 Calma 7 Sudoeste 0.2 -- -- 95
2017-11-11 18:00:00 11.7 3 Sudoeste 6 Sudoeste 0.6 -- -- 94
2017-11-11 17:00:00 12.5 0 Calma 7 Sudeste 0.2 -- -- 92
2017-11-11 16:00:00 13 4 Sur 18 Noroeste 0 -- -- 83
2017-11-11 15:00:00 12.8 3 Sudoeste 12 Noroeste 0.1 -- -- 86
2017-11-11 14:00:00 13.2 2 Norte 12 Oeste 0.4 -- -- 89
2017-11-11 13:00:00 13.4 0 Calma 10 Sudoeste 0.2 -- -- 91
2017-11-11 12:00:00 12.9 4 Sudoeste 9 Sudoeste 0.6 -- -- 95
2017-11-11 11:00:00 12.6 0 Calma 4 Sudeste 0.9 -- -- 96
2017-11-11 10:00:00 12 0 Calma 7 Oeste 0.4 -- -- 96
2017-11-11 09:00:00 11.4 0 Calma 4 Sudeste 0.6 -- -- 96
2017-11-11 08:00:00 10.9 0 Calma -- -- 1.2 -- -- 96
2017-11-11 07:00:00 10.9 0 Calma 3 Sudoeste 0.9 -- -- 96
2017-11-11 06:00:00 10.9 0 Calma 4 Sudoeste 1.2 -- -- 96
2017-11-11 05:00:00 10.8 0 Calma 4 Sur 0.6 -- -- 96
2017-11-11 04:00:00 10.9 0 Calma 3 Noroeste 1.1 -- -- 96
2017-11-11 03:00:00 10.7 0 Calma 4 Nordeste 0.5 -- -- 97
2017-11-11 02:00:00 10.8 0 Calma 4 Sudoeste 0.8 -- -- 96
2017-11-11 01:00:00 10.8 0 Calma 8 Sudoeste 0.5 -- -- 96
2017-11-11 00:00:00 10.7 3 Sudoeste 9 Sudoeste 0.4 -- -- 96
2017-11-10 23:00:00 11.2 0 Calma 15 Norte 1.5 -- -- 94
2017-11-10 22:00:00 11.3 0 Calma 21 Oeste 1.2 -- -- 94
2017-11-10 21:00:00 11.4 0 Calma 21 Norte 0.9 -- -- 93
2017-11-10 20:00:00 11.7 5 Norte 21 Norte 1.2 -- -- 90
2017-11-10 19:00:00 11.3 0 Calma 4 Sudoeste 1.6 -- -- 94
2017-11-10 18:00:00 11.7 3 Sudeste 11 Noroeste 1 -- -- 92
2017-11-10 17:00:00 12.8 2 Sur 11 Norte 0 -- -- 83
2017-11-10 16:00:00 13.5 3 Noroeste 17 Noroeste 0 -- -- 73
2017-11-10 15:00:00 13.8 3 Norte 6 Sudoeste 0 -- -- 80
2017-11-10 14:00:00 11.8 0 Calma 8 Nordeste 0 -- -- 86
2017-11-10 13:00:00 9.8 0 Calma 5 Este 0 -- -- 89
2017-11-10 12:00:00 8.9 0 Calma 5 Este 0.2 -- -- 96
2017-11-10 11:00:00 7.5 0 Calma 2 Nordeste 1.2 -- -- 97
2017-11-10 10:00:00 6.9 0 Calma 4 Sur 0 -- -- 97
2017-11-10 09:00:00 6.2 0 Calma -- -- 0.2 -- -- 97
2017-11-10 08:00:00 5.7 0 Calma 3 Sudoeste 0.3 -- -- 97
2017-11-10 07:00:00 5.4 0 Calma -- -- 0.1 -- -- 97
2017-11-10 06:00:00 5.1 0 Calma 3 Sudeste 0 -- -- 97
2017-11-10 05:00:00 4.8 0 Calma 0 Calma 0 -- -- 97
2017-11-10 04:00:00 4.6 0 Calma 3 Sudeste 0 -- -- 97
2017-11-10 03:00:00 4.5 0 Calma 0 Calma 0 -- -- 97
2017-11-10 02:00:00 4.7 0 Calma 3 Sudoeste 0 -- -- 97
2017-11-10 01:00:00 4.8 0 Calma 5 Sudoeste 0.1 -- -- 97
2017-11-10 00:00:00 4.8 0 Calma 3 Sudoeste 0 -- -- 97
2017-11-09 23:00:00 5.3 0 Calma 3 Sudoeste 0 -- -- 97
2017-11-09 22:00:00 6.1 0 Calma 3 Sur 0 -- -- 96
2017-11-09 21:00:00 6.3 0 Calma 6 Sur 0 -- -- 96
2017-11-09 20:00:00 6.4 0 Calma 4 Sur 0 -- -- 95
2017-11-09 19:00:00 8.1 0 Calma 5 Sur 0.1 -- -- 95
2017-11-09 18:00:00 8.9 0 Calma 5 Este 1.1 -- -- 92
2017-11-09 17:00:00 9.6 0 Calma 12 Nordeste 0 -- -- 85
2017-11-09 16:00:00 10.2 2 Este 8 Este 0 -- -- 86
2017-11-09 15:00:00 9.3 3 Sudeste 10 Sudeste 0.2 -- -- 89
2017-11-09 14:00:00 9.5 3 Este 14 Nordeste 0.1 -- -- 85
2017-11-09 13:00:00 9.2 0 Calma 12 Nordeste 0.1 -- -- 89
2017-11-09 12:00:00 9.4 0 Calma 7 Norte 0.1 -- -- 91
2017-11-09 11:00:00 8.2 3 Sudoeste 6 Sur 0.7 -- -- 96
2017-11-09 10:00:00 7 0 Calma 5 Norte 1.5 -- -- 97
2017-11-09 09:00:00 -- 0 Calma -- -- -- -- -- --
2017-11-09 08:00:00 -- -- -- -- -- -- -- -- --
2017-11-09 07:00:00 -- -- -- -- -- -- -- -- --
2017-11-09 06:00:00 -- -- -- -- -- -- -- -- --
2017-11-09 05:00:00 -- -- -- -- -- -- -- -- --
2017-11-09 04:00:00 -- -- -- -- -- -- -- -- --
2017-11-09 03:00:00 -- -- -- -- -- -- -- -- --
2017-11-09 02:00:00 -- -- -- -- -- -- -- -- --
2017-11-09 01:00:00 -- -- -- -- -- -- -- -- --
2017-11-09 00:00:00 -- -- -- -- -- -- -- -- --
2017-11-08 23:00:00 -- -- -- -- -- -- -- -- --
2017-11-08 22:00:00 -- -- -- -- -- -- -- -- --
2017-11-08 21:00:00 -- -- -- -- -- -- -- -- --
2017-11-08 20:00:00 -- -- -- -- -- -- -- -- --
2017-11-08 19:00:00 -- -- -- -- -- -- -- -- --
2017-11-08 18:00:00 -- -- -- -- -- -- -- -- --
2017-11-08 17:00:00 -- -- -- -- -- -- -- -- --
2017-11-08 16:00:00 -- -- -- -- -- -- -- -- --
2017-11-08 15:00:00 -- -- -- -- -- -- -- -- --
2017-11-08 14:00:00 -- -- -- -- -- -- -- -- --
2017-11-08 13:00:00 -- -- -- -- -- -- -- -- --
2017-11-08 12:00:00 -- -- -- -- -- -- -- -- --
2017-11-08 11:00:00 -- -- -- -- -- -- -- -- --
2017-11-08 10:00:00 -- -- -- -- -- -- -- -- --
2017-11-08 09:00:00 7.5 4 Sur 8 Sudoeste 1.7 -- -- 97
2017-11-08 08:00:00 7 0 Calma 9 Noroeste 1.6 -- -- 97
2017-11-08 07:00:00 6.5 2 Sudoeste 12 Norte 2.8 -- -- 97
2017-11-08 06:00:00 6.2 0 Calma 8 Sur 0.8 -- -- 97
2017-11-08 05:00:00 5.8 0 Calma 12 Sudeste 2.9 -- -- 97
2017-11-08 04:00:00 5.3 4 Noroeste 10 Sudoeste 1 -- -- 97
2017-11-08 03:00:00 4.8 2 Sudoeste 7 Sudoeste 0 -- -- 96
2017-11-08 02:00:00 4.9 0 Calma 6 Norte 0 -- -- 95
2017-11-08 01:00:00 5.6 3 Sur 8 Sur 0.6 -- -- 95
2017-11-08 00:00:00 5.7 0 Calma 5 Sudeste 1 -- -- 93
2017-11-07 23:00:00 5.8 0 Calma 5 Oeste 0.1 -- -- 92
2017-11-07 22:00:00 5.7 0 Calma 9 Sudeste 0 -- -- 91
2017-11-07 21:00:00 5.5 0 Calma 3 Sudeste 0 -- -- 90
2017-11-07 20:00:00 5.1 0 Calma 3 Sudoeste 0 -- -- 90
2017-11-07 19:00:00 4.6 0 Calma 6 Sur 0 -- -- 86
2017-11-07 18:00:00 5.8 0 Calma 7 Sudoeste 0 -- -- 76
2017-11-07 17:00:00 9.3 0 Calma 13 Noroeste 0 -- -- 55
2017-11-07 16:00:00 11.9 5 Noroeste 9 Noroeste 0 -- -- 46
2017-11-07 15:00:00 11.5 2 Norte 10 Noroeste 0 -- -- 48
2017-11-07 14:00:00 11.3 4 Noroeste 8 Noroeste 0 -- -- 48
2017-11-07 13:00:00 9.6 0 Calma 7 Oeste 0 -- -- 59
2017-11-07 12:00:00 5.7 0 Calma 5 Sudeste 0 -- -- 89
2017-11-07 11:00:00 2 0 Calma 7 Sudeste 0 -- -- 98
2017-11-07 10:00:00 0.6 0 Calma 6 Noroeste 0 -- -- 98
2017-11-07 09:00:00 0.2 0 Calma 5 Sudeste 0 -- -- 98
2017-11-07 08:00:00 0 0 Calma 5 Sudeste 0 -- -- 98
2017-11-07 07:00:00 0 0 Calma 3 Sur 0 -- -- 98
2017-11-07 06:00:00 0 0 Calma 4 Sur 0 -- -- 98
2017-11-07 05:00:00 -0.1 0 Calma 0 Calma 0 -- -- 98
2017-11-07 04:00:00 0 0 Calma 3 Sudoeste 0 -- -- 97
2017-11-07 03:00:00 0.3 0 Calma 3 Nordeste 0.1 -- -- 97
2017-11-07 02:00:00 0.7 0 Calma 3 Este 0 -- -- 97
2017-11-07 01:00:00 1.1 0 Calma 2 Noroeste 0 -- -- 97
2017-11-07 00:00:00 1.6 0 Calma 0 Calma 0 -- -- 96
2017-11-06 23:00:00 2.4 0 Calma 4 Este 0 -- -- 95
2017-11-06 22:00:00 3 0 Calma 4 Sudeste 0 -- -- 95
2017-11-06 21:00:00 3.4 0 Calma 4 Sudoeste 0 -- -- 93
2017-11-06 20:00:00 4.6 0 Calma 4 Sudoeste 0 -- -- 90
2017-11-06 19:00:00 6.7 0 Calma 9 Norte 0 -- -- 83
2017-11-06 18:00:00 9.3 4 Norte 13 Nordeste 0 -- -- 68
2017-11-06 17:00:00 10 5 Norte 21 Norte 0 -- -- 66
2017-11-06 16:00:00 10.3 5 Norte 20 Nordeste 0 -- -- 64
2017-11-06 15:00:00 10.5 6 Norte 18 Noroeste 0 -- -- 61
2017-11-06 14:00:00 10.7 9 Norte 22 Norte 0 -- -- 56
2017-11-06 13:00:00 10.1 10 Norte 23 Norte 0 -- -- 61
2017-11-06 12:00:00 9.9 3 Nordeste 13 Nordeste 0 -- -- 71
2017-11-06 11:00:00 9.3 0 Calma 5 Sudoeste 0 -- -- 83
2017-11-06 10:00:00 8.4 2 Norte 8 Noroeste 0 -- -- 92
2017-11-06 09:00:00 7.3 0 Calma 6 Sudoeste 0.2 -- -- 96
2017-11-06 08:00:00 6.9 0 Calma 4 Sudeste 0.4 -- -- 97
2017-11-06 07:00:00 6.9 0 Calma 7 Noroeste 0.3 -- -- 97
2017-11-06 06:00:00 6.7 0 Calma 5 Noroeste 0 -- -- 96
2017-11-06 05:00:00 6.8 0 Calma 5 Este 0.2 -- -- 95
2017-11-06 04:00:00 6.9 0 Calma 6 Sudoeste 0.3 -- -- 95
2017-11-06 03:00:00 7.1 0 Calma 8 Sudeste 0.1 -- -- 95
2017-11-06 02:00:00 7.6 0 Calma 6 Sur 0.9 -- -- 94
2017-11-06 01:00:00 7.9 5 Sur 14 Nordeste 0.6 -- -- 89
2017-11-06 00:00:00 8.8 0 Calma 13 Sudeste 0.6 -- -- 93
2017-11-05 23:00:00 8.9 3 Nordeste 12 Noroeste 0 -- -- 89
2017-11-05 22:00:00 9.8 10 Norte 37 Norte 0.1 -- -- 81
2017-11-05 21:00:00 8.9 3 Nordeste 14 Nordeste 1.1 -- -- 89
2017-11-05 20:00:00 8.5 2 Sur 11 Nordeste 0.8 -- -- 94
2017-11-05 19:00:00 8.7 0 Calma 14 Norte 1.1 -- -- 92
2017-11-05 18:00:00 9.7 5 Norte 15 Nordeste 1.7 -- -- 92
2017-11-05 17:00:00 9.8 3 Sudoeste 11 Oeste 3.1 -- -- 92
2017-11-05 16:00:00 10.4 2 Oeste 20 Norte 0.7 -- -- 87
2017-11-05 15:00:00 10.5 12 Norte 23 Norte 1.5 -- -- 73
2017-11-05 14:00:00 12.6 2 Noroeste 17 Norte 0.1 -- -- 73
2017-11-05 13:00:00 12.1 4 Sur 18 Oeste 1.6 -- -- 77
2017-11-05 12:00:00 12.1 3 Este 8 Nordeste 0.1 -- -- 80
2017-11-05 11:00:00 10.2 2 Sudoeste 14 Noroeste 2.2 -- -- 89
2017-11-05 10:00:00 10.3 0 Calma 6 Sudoeste 0.5 -- -- 95
2017-11-05 09:00:00 9.6 0 Calma 12 Noroeste 1.8 -- -- 96
2017-11-05 08:00:00 9.2 0 Calma 5 Sudoeste 0.5 -- -- 96
2017-11-05 07:00:00 9.4 2 Noroeste 10 Sudeste 1.6 -- -- 95
2017-11-05 06:00:00 10.1 0 Calma 15 Noroeste 2 -- -- 91
2017-11-05 05:00:00 10.9 0 Calma 10 Sudoeste 1.9 -- -- 94
2017-11-05 04:00:00 11.4 0 Calma 27 Norte 0.7 -- -- 87
2017-11-05 03:00:00 11.7 0 Calma 23 Norte 4.7 -- -- 92
2017-11-05 02:00:00 12.5 9 Norte 23 Noroeste 2.5 -- -- 85
2017-11-05 01:00:00 12.1 0 Calma 17 Norte 2.4 -- -- 96
2017-11-05 00:00:00 11.9 0 Calma 4 Nordeste 1.2 -- -- 97
2017-11-04 23:00:00 12 0 Calma 4 Nordeste 4.5 -- -- 96
2017-11-04 22:00:00 12 0 Calma 4 Sudoeste 6.1 -- -- 96
2017-11-04 21:00:00 12.2 0 Calma 9 Sur 7.1 -- -- 95
2017-11-04 20:00:00 12.4 2 Sudoeste 9 Oeste 2.3 -- -- 95
2017-11-04 19:00:00 12.9 0 Calma 7 Noroeste 4 -- -- 95
2017-11-04 18:00:00 13.1 2 Sudeste 5 Sudeste 1.5 -- -- 94
2017-11-04 17:00:00 13.8 4 Noroeste 13 Sur 5.4 -- -- 90
2017-11-04 16:00:00 15.2 0 Calma 3 Sudoeste 1.1 -- -- 89
2017-11-04 15:00:00 15.7 0 Calma 3 Nordeste 0 -- -- 83
2017-11-04 14:00:00 14.3 0 Calma 3 Sudoeste 0 -- -- 87
2017-11-04 13:00:00 13.4 3 Sudoeste 6 Sur 0 -- -- 92
2017-11-04 12:00:00 12.1 0 Calma 4 Noroeste 0 -- -- 96
2017-11-04 11:00:00 11.5 0 Calma 4 Sur 0.1 -- -- 96
2017-11-04 10:00:00 10.8 0 Calma 5 Norte 0 -- -- 97
2017-11-04 09:00:00 9.5 0 Calma 6 Noroeste 0 -- -- 97
2017-11-04 08:00:00 8.6 0 Calma 8 Sudoeste 0 -- -- 97
2017-11-04 07:00:00 8.1 0 Calma 8 Sur 0 -- -- 97
2017-11-04 06:00:00 7.7 0 Calma 11 Sur 0 -- -- 97
2017-11-04 05:00:00 6.7 0 Calma 5 Sudoeste 0 -- -- 97
2017-11-04 04:00:00 6.8 0 Calma 7 Sur 0 -- -- 97
2017-11-04 03:00:00 6.9 0 Calma 0 Calma 0 -- -- 96
2017-11-04 02:00:00 7.3 0 Calma 4 Sudeste 0 -- -- 96
2017-11-04 01:00:00 7.8 0 Calma 6 Sudoeste 0 -- -- 96
2017-11-04 00:00:00 8.7 0 Calma 4 Sudoeste 0 -- -- 95
2017-11-03 23:00:00 9.6 0 Calma 3 Sudoeste 0 -- -- 95
2017-11-03 22:00:00 9.3 0 Calma 5 Noroeste 0 -- -- 93
2017-11-03 21:00:00 10.3 0 Calma 4 Sudeste 0 -- -- 92
2017-11-03 20:00:00 11.8 0 Calma 4 Sudoeste 0 -- -- 87
2017-11-03 19:00:00 14.1 0 Calma 5 Sudoeste 0 -- -- 83
2017-11-03 18:00:00 15.5 0 Calma 8 Sudoeste 0 -- -- 74
2017-11-03 17:00:00 18.8 0 Calma 12 Sudoeste 0 -- -- 55
2017-11-03 16:00:00 21.5 5 Sur 19 Sur 0 -- -- 47
2017-11-03 15:00:00 22.2 7 Sur 15 Sudeste 0 -- -- 45
2017-11-03 14:00:00 20.8 4 Sur 21 Sudoeste 0 -- -- 50
2017-11-03 13:00:00 20.4 10 Sur 38 Sudeste 0 -- -- 50
2017-11-03 12:00:00 19.9 15 Sur 39 Sur 0 -- -- 50
2017-11-03 11:00:00 19.7 12 Sur 27 Sudoeste 0 -- -- 50
2017-11-03 10:00:00 17.9 4 Sudoeste 15 Sur 0 -- -- 59
2017-11-03 09:00:00 11 0 Calma 5 Sur 0 -- -- 96
2017-11-03 08:00:00 9.9 0 Calma 6 Sudeste 0 -- -- 96
2017-11-03 07:00:00 9.9 0 Calma 5 Sudeste 0 -- -- 96
2017-11-03 06:00:00 9.6 0 Calma 4 Este 0 -- -- 96
2017-11-03 05:00:00 9.6 0 Calma 4 Nordeste 0 -- -- 96
2017-11-03 04:00:00 9.5 0 Calma 8 Sur 0 -- -- 95
2017-11-03 03:00:00 9.9 0 Calma 9 Sur 0 -- -- 95
2017-11-03 02:00:00 9.8 0 Calma 7 Noroeste 0 -- -- 94
2017-11-03 01:00:00 10.5 0 Calma 8 Sudeste 0 -- -- 94
2017-11-03 00:00:00 10.9 0 Calma 7 Sudoeste 0 -- -- 94
2017-11-02 23:00:00 11 2 Noroeste 10 Noroeste 0 -- -- 93
2017-11-02 22:00:00 11.3 0 Calma 5 Sudoeste 0 -- -- 93
2017-11-02 21:00:00 12.3 0 Calma 8 Sudoeste 0 -- -- 90
2017-11-02 20:00:00 13.7 0 Calma 10 Norte 0 -- -- 86
2017-11-02 19:00:00 14.1 0 Calma 10 Sur 0 -- -- 83
2017-11-02 18:00:00 15.5 2 Este 8 Este 0 -- -- 73
2017-11-02 17:00:00 19 0 Calma 27 Sudoeste 0 -- -- 56
2017-11-02 16:00:00 19.9 10 Sudoeste 32 Sudoeste 0 -- -- 50
2017-11-02 15:00:00 20.4 5 Sudoeste 22 Sudoeste 0 -- -- 50
2017-11-02 14:00:00 20.3 12 Sur 24 Sur 0 -- -- 48
2017-11-02 13:00:00 20.9 3 Noroeste 31 Sudoeste 0 -- -- 50
2017-11-02 12:00:00 19.2 14 Sudoeste 34 Sudoeste 0 -- -- 53
2017-11-02 11:00:00 16.5 2 Sudoeste 14 Sur 0 -- -- 71
2017-11-02 10:00:00 11.6 0 Calma 10 Noroeste 0 -- -- 94
2017-11-02 09:00:00 9.6 0 Calma 10 Sudeste 0 -- -- 96
2017-11-02 08:00:00 8 0 Calma 14 Sudeste 0 -- -- 96
2017-11-02 07:00:00 7.4 0 Calma 7 Sudeste 0 -- -- 96
2017-11-02 06:00:00 7.8 0 Calma 10 Sur 0 -- -- 96
2017-11-02 05:00:00 8.1 0 Calma 10 Sur 0 -- -- 96
2017-11-02 04:00:00 8 0 Calma 7 Norte 0 -- -- 96
2017-11-02 03:00:00 7.8 0 Calma 8 Sur 0 -- -- 96
2017-11-02 02:00:00 8.3 3 Sur 10 Noroeste 0 -- -- 96
2017-11-02 01:00:00 8.6 0 Calma 7 Noroeste 0 -- -- 96
2017-11-02 00:00:00 8.3 0 Calma 6 Sudoeste 0 -- -- 96
2017-11-01 23:00:00 8.6 0 Calma 7 Nordeste 0 -- -- 95
2017-11-01 22:00:00 9.2 0 Calma 5 Norte 0 -- -- 95
2017-11-01 21:00:00 9.9 0 Calma 5 Sudoeste 0 -- -- 93
2017-11-01 20:00:00 10.4 0 Calma 6 Norte 0 -- -- 92
2017-11-01 19:00:00 11.7 0 Calma 6 Sudoeste 0 -- -- 87
2017-11-01 18:00:00 14.7 0 Calma 4 Sudoeste 0 -- -- 78
2017-11-01 17:00:00 17.2 0 Calma 10 Oeste 0 -- -- 64
2017-11-01 16:00:00 19 2 Oeste 27 Sudoeste 0 -- -- 50
2017-11-01 15:00:00 20 11 Sur 37 Sudoeste 0 -- -- 46
2017-11-01 14:00:00 19.6 21 Sur 43 Sudoeste 0 -- -- 47
2017-11-01 13:00:00 20.1 11 Sur 34 Sudoeste 0 -- -- 49
2017-11-01 12:00:00 19.3 12 Sur 31 Sudeste 0 -- -- 51
2017-11-01 11:00:00 18.4 9 Sur 22 Sudeste 0 -- -- 52
2017-11-01 10:00:00 15.1 2 Este 15 Noroeste 0 -- -- 69
2017-11-01 09:00:00 9.6 0 Calma 16 Noroeste 0 -- -- 95
2017-11-01 08:00:00 6.7 0 Calma 10 Sur 0 -- -- 96
2017-11-01 07:00:00 6.1 0 Calma 10 Nordeste 0 -- -- 96
2017-11-01 06:00:00 5.7 0 Calma 9 Sudeste 0 -- -- 96
2017-11-01 05:00:00 5.1 0 Calma 10 Sur 0 -- -- 96
2017-11-01 04:00:00 5 0 Calma 11 Sur 0 -- -- 96
2017-11-01 03:00:00 4.9 0 Calma 8 Sur 0 -- -- 96
2017-11-01 02:00:00 5.5 0 Calma 12 Sur 0 -- -- 96
2017-11-01 01:00:00 5.7 0 Calma 8 Sur 0 -- -- 96
2017-11-01 00:00:00 6.3 0 Calma 10 Sur 0 -- -- 96
2017-10-31 23:00:00 6.2 0 Calma 13 Sur 0 -- -- 96
2017-10-31 22:00:00 6.3 0 Calma 8 Sur 0 -- -- 96
2017-10-31 21:00:00 6.6 0 Calma 3 Noroeste 0 -- -- 94
2017-10-31 20:00:00 7.5 0 Calma 0 Calma 0 -- -- 92
2017-10-31 19:00:00 9 0 Calma 3 Oeste 0 -- -- 89
2017-10-31 18:00:00 11.6 0 Calma 6 Sudoeste 0 -- -- 80
2017-10-31 17:00:00 14.5 0 Calma 4 Sudoeste 0 -- -- 69
2017-10-31 16:00:00 16.9 0 Calma 6 Sudoeste 0 -- -- 55
2017-10-31 15:00:00 15.9 0 Calma 6 Noroeste 0 -- -- 53
2017-10-31 14:00:00 15.1 3 Sudoeste 6 Sudoeste 0.1 -- -- 54
2017-10-31 13:00:00 11.4 2 Norte 7 Este 0 -- -- 66
2017-10-31 12:00:00 7.7 0 Calma 5 Nordeste 0 -- -- 91
2017-10-31 11:00:00 4.9 0 Calma 6 Nordeste 0 -- -- 97
2017-10-31 10:00:00 4.5 0 Calma 7 Nordeste 0 -- -- 97
2017-10-31 09:00:00 4.4 0 Calma 5 Nordeste 0 -- -- 97
2017-10-31 08:00:00 3.8 0 Calma 5 Sur 0 -- -- 97
2017-10-31 07:00:00 3.9 2 Sudeste 5 Sur 0 -- -- 97
2017-10-31 06:00:00 4.1 0 Calma 3 Sur 0 -- -- 97
2017-10-31 05:00:00 4.1 2 Norte 4 Nordeste 0 -- -- 97
2017-10-31 04:00:00 4.6 0 Calma 3 Nordeste 0 -- -- 97
2017-10-31 03:00:00 4.3 0 Calma 3 Sudoeste 0 -- -- 96
2017-10-31 02:00:00 3.7 0 Calma 3 Sudoeste 0 -- -- 95
2017-10-31 01:00:00 4.4 0 Calma 2 Sudoeste 0 -- -- 95
2017-10-31 00:00:00 5 0 Calma 3 Sudoeste 0 -- -- 93
2017-10-30 23:00:00 5.9 0 Calma 6 Sudoeste 0 -- -- 92
2017-10-30 22:00:00 7 2 Sur 6 Sur 0 -- -- 87
2017-10-30 21:00:00 10.7 5 Nordeste 15 Nordeste 0 -- -- 68
2017-10-30 20:00:00 11.4 7 Norte 14 Norte 0 -- -- 70
2017-10-30 19:00:00 12 6 Norte 14 Nordeste 0 -- -- 72
2017-10-30 18:00:00 12.5 5 Norte 18 Noroeste 0 -- -- 72
2017-10-30 17:00:00 13.4 8 Norte 18 Noroeste 0 -- -- 74
2017-10-30 16:00:00 13.8 3 Noroeste 18 Noroeste 0 -- -- 77
2017-10-30 15:00:00 14.6 4 Norte 12 Norte 0 -- -- 75
2017-10-30 14:00:00 14.6 4 Nordeste 17 Nordeste 0 -- -- 73
2017-10-30 13:00:00 14.5 6 Nordeste 18 Norte 0 -- -- 73
2017-10-30 12:00:00 14.7 6 Norte 15 Nordeste 0 -- -- 75
2017-10-30 11:00:00 14.1 4 Nordeste 13 Norte 0 -- -- 82
2017-10-30 10:00:00 13.6 0 Calma 4 Noroeste 0 -- -- 94
2017-10-30 09:00:00 13.3 0 Calma 4 Noroeste 0 -- -- 96
2017-10-30 08:00:00 12.3 0 Calma 2 Sudoeste 0.4 -- -- 96
2017-10-30 07:00:00 12.2 0 Calma -- -- 0.6 -- -- 96
2017-10-30 06:00:00 12.3 0 Calma 2 Oeste 0.3 -- -- 96
2017-10-30 05:00:00 12.2 0 Calma 0 Calma 0.1 -- -- 96
2017-10-30 04:00:00 12.2 0 Calma 4 Noroeste 0.7 -- -- 96
2017-10-30 03:00:00 12.2 0 Calma 2 Nordeste 0 -- -- 96
2017-10-30 02:00:00 12.2 0 Calma 4 Noroeste 0.1 -- -- 95
2017-10-30 01:00:00 12.3 0 Calma 4 Noroeste 0 -- -- 96
2017-10-30 00:00:00 12.4 0 Calma 0 Calma 0 -- -- 95
2017-10-29 23:00:00 12.4 0 Calma 0 Calma 0.4 -- -- 95
2017-10-29 22:00:00 12.4 0 Calma 3 Noroeste 0.3 -- -- 95
2017-10-29 21:00:00 12.6 0 Calma 2 Noroeste 0.1 -- -- 94
2017-10-29 20:00:00 12.5 0 Calma 4 Noroeste 0.1 -- -- 93
2017-10-29 19:00:00 12.8 0 Calma 8 Sudeste 0.2 -- -- 91
2017-10-29 18:00:00 13.6 0 Calma 7 Norte 0 -- -- 84
2017-10-29 17:00:00 14.3 4 Norte 12 Nordeste 0 -- -- 73
2017-10-29 16:00:00 15 6 Norte 16 Norte 0 -- -- 67
2017-10-29 15:00:00 15.3 0 Calma 10 Nordeste 0 -- -- 73
2017-10-29 14:00:00 14.4 0 Calma 6 Sudeste 0 -- -- 78
2017-10-29 13:00:00 13 2 Sur 5 Sudoeste 0 -- -- 81
2017-10-29 12:00:00 11.8 0 Calma 4 Nordeste 0 -- -- 80
2017-10-29 11:00:00 10.3 2 Nordeste 5 Este 0 -- -- 89
2017-10-29 10:00:00 8.2 0 Calma 4 Nordeste 0 -- -- 97
2017-10-29 09:00:00 7.1 0 Calma 0 Calma 0 -- -- 97
2017-10-29 08:00:00 6.3 0 Calma 2 Sur 0 -- -- 97
2017-10-29 07:00:00 6 0 Calma -- -- 0 -- -- 97
2017-10-29 06:00:00 5.9 0 Calma 2 Nordeste 0 -- -- 97
2017-10-29 05:00:00 5.9 0 Calma 3 Noroeste 0 -- -- 97
2017-10-29 04:00:00 5.7 0 Calma 2 Sudeste 0 -- -- 97
2017-10-29 03:00:00 5.6 0 Calma -- -- 0 -- -- 97
2017-10-29 02:00:00 5.3 0 Calma 2 Noroeste 0 -- -- 96
2017-10-29 01:00:00 5.1 0 Calma 4 Sudoeste 0 -- -- 96
2017-10-29 00:00:00 5.9 0 Calma 0 Calma 0 -- -- 95
2017-10-28 23:00:00 6.7 0 Calma 2 Este 0 -- -- 93
2017-10-28 22:00:00 8 0 Calma 3 Sur 0 -- -- 92
2017-10-28 21:00:00 9.4 0 Calma 5 Este 0 -- -- 90
2017-10-28 20:00:00 11.1 0 Calma 7 Norte 0 -- -- 85
2017-10-28 19:00:00 14.2 2 Nordeste 14 Norte 0 -- -- 73
2017-10-28 18:00:00 15.4 9 Norte 16 Noroeste 0 -- -- 68
2017-10-28 17:00:00 16.1 3 Sudoeste 6 Norte 0 -- -- 69
2017-10-28 16:00:00 15.7 0 Calma 10 Nordeste 0 -- -- 71
2017-10-28 15:00:00 15.2 4 Nordeste 10 Nordeste 0 -- -- 72
2017-10-28 14:00:00 15.2 3 Este 19 Nordeste 0 -- -- 71
2017-10-28 13:00:00 15.4 0 Calma 17 Norte 0 -- -- 72
2017-10-28 12:00:00 14.8 3 Nordeste 13 Norte 0 -- -- 76
2017-10-28 11:00:00 14 0 Calma 4 Nordeste 0 -- -- 96
2017-10-28 10:00:00 13.2 0 Calma 3 Noroeste 0 -- -- 96
2017-10-28 09:00:00 12.9 0 Calma -- -- 0 -- -- 96
2017-10-28 08:00:00 12.7 0 Calma 4 Sudeste 0 -- -- 96
2017-10-28 07:00:00 12.6 0 Calma 2 Sur 0 -- -- 95
2017-10-28 06:00:00 13.1 0 Calma 0 Calma 0 -- -- 95
2017-10-28 05:00:00 13.2 0 Calma 2 Sudoeste 0 -- -- 96
2017-10-28 04:00:00 13.6 0 Calma 5 Sudoeste 0.2 -- -- 96
2017-10-28 03:00:00 13.6 0 Calma 3 Sudeste 0.2 -- -- 96
2017-10-28 02:00:00 13.7 0 Calma 3 Nordeste 0.3 -- -- 95
2017-10-28 01:00:00 13.8 0 Calma 5 Este 0 -- -- 95
2017-10-28 00:00:00 14.1 0 Calma 6 Sudoeste 0 -- -- 94
2017-10-27 23:00:00 14.5 0 Calma 5 Norte 0.3 -- -- 95
2017-10-27 22:00:00 14.5 0 Calma 4 Sudeste 0 -- -- 93
2017-10-27 21:00:00 14.7 0 Calma 4 Norte 0 -- -- 92
2017-10-27 20:00:00 15.1 0 Calma 3 Nordeste 0 -- -- 89
2017-10-27 19:00:00 16 0 Calma 9 Norte 0 -- -- 83
2017-10-27 18:00:00 16.9 6 Norte 22 Norte 0 -- -- 73
2017-10-27 17:00:00 17.1 9 Norte 18 Norte 0.1 -- -- 79
2017-10-27 16:00:00 16.4 2 Noroeste 5 Sudeste 0 -- -- 81
2017-10-27 15:00:00 15.9 0 Calma 5 Oeste 0 -- -- 79
2017-10-27 14:00:00 14.4 0 Calma 5 Sur 0 -- -- 82
2017-10-27 13:00:00 12.3 0 Calma 2 Sur 0 -- -- 89
2017-10-27 12:00:00 10.9 0 Calma 2 Noroeste 0 -- -- 93
2017-10-27 11:00:00 9.9 0 Calma 3 Sudoeste 0 -- -- 97
2017-10-27 10:00:00 8.9 0 Calma 3 Sur 0 -- -- 97
2017-10-27 09:00:00 8.3 0 Calma 2 Sudoeste 0 -- -- 97
2017-10-27 08:00:00 7.6 0 Calma 2 Sudoeste 0 -- -- 97
2017-10-27 07:00:00 7.9 0 Calma 0 Calma 0 -- -- 97
2017-10-27 06:00:00 7.9 0 Calma 0 Calma 0 -- -- 97
2017-10-27 05:00:00 7.5 0 Calma 0 Calma 0 -- -- 97
2017-10-27 04:00:00 7 0 Calma -- -- 0 -- -- 96
2017-10-27 03:00:00 7.1 0 Calma -- -- 0 -- -- 96
2017-10-27 02:00:00 7.8 0 Calma 0 Calma 0 -- -- 96
2017-10-27 01:00:00 8.2 0 Calma -- -- 0 -- -- 95
2017-10-27 00:00:00 8.9 0 Calma -- -- 0 -- -- 94
2017-10-26 23:00:00 9.9 0 Calma 2 Sudoeste 0 -- -- 93
2017-10-26 22:00:00 11.3 0 Calma -- -- 0 -- -- 92
2017-10-26 21:00:00 12.8 0 Calma 2 Oeste 0 -- -- 90
2017-10-26 20:00:00 14.9 0 Calma 4 Sudoeste 0 -- -- 87
2017-10-26 19:00:00 17.8 0 Calma 6 Sudeste 0 -- -- 82
2017-10-26 18:00:00 21.3 3 Este 13 Sudeste 0 -- -- 66
2017-10-26 17:00:00 23.3 3 Este 15 Sudeste 0 -- -- 57
2017-10-26 16:00:00 25.2 4 Este 14 Nordeste 0 -- -- 48
2017-10-26 15:00:00 27.1 0 Calma 7 Sudeste 0 -- -- 38
2017-10-26 14:00:00 25.6 4 Sudeste 7 Sudeste 0 -- -- 47
2017-10-26 13:00:00 21.4 0 Calma 4 Este 0 -- -- 61
2017-10-26 12:00:00 17.7 0 Calma 4 Sudeste 0 -- -- 67
2017-10-26 11:00:00 12.9 0 Calma 3 Sur 0 -- -- 89
2017-10-26 10:00:00 8.8 0 Calma 3 Sudeste 0 -- -- 97
2017-10-26 09:00:00 6.4 0 Calma 6 Sur 0 -- -- 97
2017-10-26 08:00:00 6.6 0 Calma 5 Noroeste 0 -- -- 97
2017-10-26 07:00:00 6.7 0 Calma 6 Sur 0 -- -- 97
2017-10-26 06:00:00 7.1 0 Calma 5 Sudeste 0 -- -- 97
2017-10-26 05:00:00 7.4 0 Calma 7 Sur 0 -- -- 96
2017-10-26 04:00:00 7.8 0 Calma 4 Sur 0 -- -- 96
2017-10-26 03:00:00 8.4 0 Calma 5 Sur 0 -- -- 96
2017-10-26 02:00:00 8.7 0 Calma 8 Sudeste 0 -- -- 96
2017-10-26 01:00:00 9.2 0 Calma 4 Sudoeste 0 -- -- 96
2017-10-26 00:00:00 9.7 0 Calma 7 Sudeste 0 -- -- 96
2017-10-25 23:00:00 10.1 0 Calma 5 Sudeste 0 -- -- 95
2017-10-25 22:00:00 10.7 0 Calma 4 Sudeste 0 -- -- 93
2017-10-25 21:00:00 12.2 0 Calma 3 Oeste 0 -- -- 91
2017-10-25 20:00:00 14.3 0 Calma 4 Sudoeste 0 -- -- 84
2017-10-25 19:00:00 17.5 0 Calma 7 Sudoeste 0 -- -- 69
2017-10-25 18:00:00 22.1 6 Sudoeste 11 Sudoeste 0 -- -- 52
2017-10-25 17:00:00 26.3 0 Calma 5 Sudoeste 0 -- -- 49
2017-10-25 16:00:00 26 0 Calma 5 Sudeste 0 -- -- 47
2017-10-25 15:00:00 25.2 2 Sudeste 5 Sudeste 0 -- -- 47
2017-10-25 14:00:00 23 0 Calma 4 Nordeste 0 -- -- 52
2017-10-25 13:00:00 19.6 0 Calma 4 Sudeste 0 -- -- 64
2017-10-25 12:00:00 16.1 0 Calma 4 Sudeste 0 -- -- 78
2017-10-25 11:00:00 11.6 0 Calma 3 Norte 0 -- -- 92
2017-10-25 10:00:00 8.1 0 Calma 2 Oeste 0 -- -- 97
2017-10-25 09:00:00 7.7 0 Calma -- -- 0.1 -- -- 97
2017-10-25 08:00:00 7.8 0 Calma -- -- 0 -- -- 97
2017-10-25 07:00:00 8.2 0 Calma -- -- 0 -- -- 97
2017-10-25 06:00:00 8.5 0 Calma -- -- 0 -- -- 97
2017-10-25 05:00:00 8.6 0 Calma -- -- 0 -- -- 97
2017-10-25 04:00:00 8.4 0 Calma -- -- 0 -- -- 96
2017-10-25 03:00:00 8.7 0 Calma -- -- 0 -- -- 96
2017-10-25 02:00:00 8.8 0 Calma -- -- 0 -- -- 96
2017-10-25 01:00:00 8.8 0 Calma -- -- 0 -- -- 95
2017-10-25 00:00:00 9.2 0 Calma -- -- 0 -- -- 95